createdAt,value
2022-11-21T14:39:51.207Z,16.40
2022-11-21T14:50:07.148Z,16.30
2022-11-21T15:00:43.327Z,16.10
2022-11-21T15:10:41.403Z,16.30
2022-11-21T15:20:50.576Z,16.40
2022-11-21T15:31:16.145Z,16.00
2022-11-21T15:41:32.550Z,15.90
2022-11-21T15:52:05.743Z,15.70
2022-11-21T16:02:03.028Z,15.50
2022-11-21T16:12:06.927Z,15.10
2022-11-21T16:22:12.096Z,14.90
2022-11-21T16:32:15.799Z,15.00
2022-11-21T16:42:21.814Z,14.50
2022-11-21T16:52:26.598Z,14.60
2022-11-21T17:02:31.669Z,14.70
2022-11-21T17:12:39.186Z,14.40
2022-11-21T17:22:44.206Z,14.20
2022-11-21T17:32:48.093Z,14.20
2022-11-21T17:42:53.360Z,14.50
2022-11-21T17:52:58.725Z,14.60
2022-11-21T18:03:03.737Z,14.50
2022-11-21T18:13:07.521Z,14.40
2022-11-21T18:23:12.924Z,14.40
2022-11-21T18:33:18.936Z,14.50
2022-11-21T18:43:24.612Z,14.40
2022-11-21T18:53:28.232Z,14.00
2022-11-21T19:03:33.645Z,13.90
2022-11-21T19:13:37.505Z,14.20
2022-11-21T19:23:43.730Z,15.00
2022-11-21T19:33:48.093Z,15.10
2022-11-21T19:43:54.726Z,14.80
2022-11-21T19:53:58.414Z,14.60
2022-11-21T20:04:05.825Z,14.70
2022-11-21T20:14:10.383Z,14.40
2022-11-21T20:24:15.846Z,14.30
2022-11-21T20:34:19.598Z,14.10
2022-11-21T20:54:48.516Z,13.90
2022-11-21T21:04:53.646Z,13.80
2022-11-21T21:14:57.345Z,13.80
2022-11-21T21:25:02.345Z,13.70
2022-11-21T21:35:06.629Z,13.10
2022-11-21T21:45:12.716Z,12.90
2022-11-21T21:55:16.584Z,13.60
2022-11-21T22:05:21.741Z,13.40
2022-11-21T22:15:29.501Z,13.10
2022-11-21T22:25:34.534Z,12.80
2022-11-21T22:35:38.537Z,12.50
2022-11-21T22:45:45.706Z,12.30
2022-11-21T22:55:57.745Z,12.30
2022-11-21T23:06:03.770Z,12.30
2022-11-21T23:16:08.885Z,12.40
2022-11-21T23:26:15.222Z,12.50
2022-11-21T23:36:18.879Z,12.50
2022-11-21T23:46:24.632Z,12.30
2022-11-21T23:56:28.315Z,12.40
